sensor_id;sensor_type;location;lat;lon;timestamp;noise_LAeq;noise_LA_min;noise_LA_max;noise_LA01;noise_LA95
48967;Laerm;46511;53.148;8.204;2023-11-19T00:01:42;48.91;40.23;65.71;;
48967;Laerm;46511;53.148;8.204;2023-11-19T00:04:13;52.94;40.33;70.67;;
48967;Laerm;46511;53.148;8.204;2023-11-19T00:06:45;48.77;40.98;69.26;;
48967;Laerm;46511;53.148;8.204;2023-11-19T00:09:11;48.31;41.38;67.26;;
48967;Laerm;46511;53.148;8.204;2023-11-19T00:11:38;47.61;41.46;63.12;;
48967;Laerm;46511;53.148;8.204;2023-11-19T00:14:04;59.34;41.48;70.51;;
48967;Laerm;46511;53.148;8.204;2023-11-19T00:16:34;44.22;40.71;61.24;;
48967;Laerm;46511;53.148;8.204;2023-11-19T00:19:06;53.61;41.06;75.16;;
48967;Laerm;46511;53.148;8.204;2023-11-19T00:21:37;50.18;40.80;67.18;;
48967;Laerm;46511;53.148;8.204;2023-11-19T00:24:04;43.97;40.23;62.60;;
48967;Laerm;46511;53.148;8.204;2023-11-19T00:26:30;50.71;40.71;66.14;;
48967;Laerm;46511;53.148;8.204;2023-11-19T00:28:56;49.53;40.43;68.47;;
48967;Laerm;46511;53.148;8.204;2023-11-19T00:31:28;54.68;40.43;72.02;;
48967;Laerm;46511;53.148;8.204;2023-11-19T00:33:55;46.21;40.71;64.49;;
48967;Laerm;46511;53.148;8.204;2023-11-19T00:36:21;47.81;40.13;79.59;;
48967;Laerm;46511;53.148;8.204;2023-11-19T00:38:50;47.71;40.80;81.27;;
48967;Laerm;46511;53.148;8.204;2023-11-19T00:41:16;48.05;40.62;62.44;;
48967;Laerm;46511;53.148;8.204;2023-11-19T00:43:43;46.30;39.46;62.60;;
48967;Laerm;46511;53.148;8.204;2023-11-19T00:46:09;53.09;40.33;66.54;;
48967;Laerm;46511;53.148;8.204;2023-11-19T00:48:42;54.74;39.21;66.79;;
48967;Laerm;46511;53.148;8.204;2023-11-19T00:51:08;44.28;38.95;56.38;;
48967;Laerm;46511;53.148;8.204;2023-11-19T00:53:42;44.12;40.03;53.71;;
48967;Laerm;46511;53.148;8.204;2023-11-19T00:56:10;43.18;40.43;56.58;;
48967;Laerm;46511;53.148;8.204;2023-11-19T00:58:38;45.49;38.81;73.74;;
48967;Laerm;46511;53.148;8.204;2023-11-19T01:01:05;51.72;40.03;70.01;;
48967;Laerm;46511;53.148;8.204;2023-11-19T01:03:31;43.82;40.43;57.98;;
48967;Laerm;46511;53.148;8.204;2023-11-19T01:05:59;43.10;38.37;56.26;;
48967;Laerm;46511;53.148;8.204;2023-11-19T01:08:27;42.97;39.81;54.22;;
48967;Laerm;46511;53.148;8.204;2023-11-19T01:11:01;43.29;40.71;63.94;;
48967;Laerm;46511;53.148;8.204;2023-11-19T01:13:28;43.54;40.13;55.59;;
48967;Laerm;46511;53.148;8.204;2023-11-19T01:16:00;46.38;39.92;66.37;;
48967;Laerm;46511;53.148;8.204;2023-11-19T01:18:33;43.87;40.43;63.22;;
48967;Laerm;46511;53.148;8.204;2023-11-19T01:20:59;45.53;39.58;66.90;;
48967;Laerm;46511;53.148;8.204;2023-11-19T01:23:31;51.65;40.43;69.05;;
48967;Laerm;46511;53.148;8.204;2023-11-19T01:25:58;44.20;40.71;57.83;;
48967;Laerm;46511;53.148;8.204;2023-11-19T01:28:30;51.23;39.58;68.03;;
48967;Laerm;46511;53.148;8.204;2023-11-19T01:30:57;42.65;39.58;51.93;;
48967;Laerm;46511;53.148;8.204;2023-11-19T01:33:23;44.03;40.03;61.00;;
48967;Laerm;46511;53.148;8.204;2023-11-19T01:35:50;43.24;39.81;60.97;;
48967;Laerm;46511;53.148;8.204;2023-11-19T01:38:16;44.19;39.70;70.02;;
48967;Laerm;46511;53.148;8.204;2023-11-19T01:40:47;50.46;39.58;76.54;;
48967;Laerm;46511;53.148;8.204;2023-11-19T01:43:32;49.59;36.69;78.13;;
48967;Laerm;46511;53.148;8.204;2023-11-19T01:46:00;44.93;39.81;69.27;;
48967;Laerm;46511;53.148;8.204;2023-11-19T01:48:27;44.51;40.23;60.16;;
48967;Laerm;46511;53.148;8.204;2023-11-19T01:50:58;43.43;39.58;55.01;;
48967;Laerm;46511;53.148;8.204;2023-11-19T01:53:30;44.25;40.33;63.74;;
48967;Laerm;46511;53.148;8.204;2023-11-19T01:55:58;44.18;39.81;62.21;;
48967;Laerm;46511;53.148;8.204;2023-11-19T01:58:25;50.13;40.43;73.74;;
48967;Laerm;46511;53.148;8.204;2023-11-19T02:00:57;43.93;39.70;60.08;;
48967;Laerm;46511;53.148;8.204;2023-11-19T02:03:28;43.30;39.81;58.25;;
48967;Laerm;46511;53.148;8.204;2023-11-19T02:06:00;53.76;40.13;70.12;;
48967;Laerm;46511;53.148;8.204;2023-11-19T02:08:27;43.24;40.23;58.07;;
48967;Laerm;46511;53.148;8.204;2023-11-19T02:10:53;42.91;40.13;55.30;;
48967;Laerm;46511;53.148;8.204;2023-11-19T02:13:28;44.18;38.95;65.16;;
48967;Laerm;46511;53.148;8.204;2023-11-19T02:16:00;49.79;38.37;68.68;;
48967;Laerm;46511;53.148;8.204;2023-11-19T02:18:28;42.66;38.67;49.97;;
48967;Laerm;46511;53.148;8.204;2023-11-19T02:20:56;43.67;39.34;62.16;;
48967;Laerm;46511;53.148;8.204;2023-11-19T02:23:28;42.85;38.95;55.72;;
48967;Laerm;46511;53.148;8.204;2023-11-19T02:26:00;43.01;38.95;52.27;;
48967;Laerm;46511;53.148;8.204;2023-11-19T02:28:28;43.66;40.03;57.80;;
48967;Laerm;46511;53.148;8.204;2023-11-19T02:30:59;46.09;39.34;58.97;;
48967;Laerm;46511;53.148;8.204;2023-11-19T02:33:26;45.13;38.52;58.33;;
48967;Laerm;46511;53.148;8.204;2023-11-19T02:35:52;48.03;40.03;62.59;;
48967;Laerm;46511;53.148;8.204;2023-11-19T02:38:23;44.20;39.58;66.38;;
48967;Laerm;46511;53.148;8.204;2023-11-19T02:40:50;44.94;39.58;67.86;;
48967;Laerm;46511;53.148;8.204;2023-11-19T02:43:17;45.49;39.70;68.96;;
48967;Laerm;46511;53.148;8.204;2023-11-19T02:45:44;43.19;40.43;51.02;;
48967;Laerm;46511;53.148;8.204;2023-11-19T02:48:16;44.54;38.52;71.14;;
48967;Laerm;46511;53.148;8.204;2023-11-19T02:50:43;43.67;36.45;64.74;;
48967;Laerm;46511;53.148;8.204;2023-11-19T02:53:09;43.61;39.46;60.41;;
48967;Laerm;46511;53.148;8.204;2023-11-19T02:55:41;43.94;40.23;61.30;;
48967;Laerm;46511;53.148;8.204;2023-11-19T02:58:14;43.39;39.34;56.42;;
48967;Laerm;46511;53.148;8.204;2023-11-19T03:00:49;43.27;38.95;54.96;;
48967;Laerm;46511;53.148;8.204;2023-11-19T03:03:27;43.27;39.08;61.18;;
48967;Laerm;46511;53.148;8.204;2023-11-19T03:06:04;49.03;39.21;63.61;;
48967;Laerm;46511;53.148;8.204;2023-11-19T03:08:31;43.17;38.95;55.30;;
48967;Laerm;46511;53.148;8.204;2023-11-19T03:10:57;42.76;39.58;49.21;;
48967;Laerm;46511;53.148;8.204;2023-11-19T03:13:25;53.92;40.13;67.95;;
48967;Laerm;46511;53.148;8.204;2023-11-19T03:15:51;53.24;38.52;67.68;;
48967;Laerm;46511;53.148;8.204;2023-11-19T03:18:18;43.48;39.34;57.84;;
48967;Laerm;46511;53.148;8.204;2023-11-19T03:20:46;42.26;39.08;44.76;;
48967;Laerm;46511;53.148;8.204;2023-11-19T03:23:17;42.85;38.21;46.33;;
48967;Laerm;46511;53.148;8.204;2023-11-19T03:25:44;42.57;39.08;57.47;;
48967;Laerm;46511;53.148;8.204;2023-11-19T03:28:10;42.49;39.08;57.79;;
48967;Laerm;46511;53.148;8.204;2023-11-19T03:30:42;46.28;39.21;69.91;;
48967;Laerm;46511;53.148;8.204;2023-11-19T03:33:08;42.58;38.52;58.49;;
48967;Laerm;46511;53.148;8.204;2023-11-19T03:35:35;43.33;38.81;54.02;;
48967;Laerm;46511;53.148;8.204;2023-11-19T03:38:01;51.05;39.70;65.72;;
48967;Laerm;46511;53.148;8.204;2023-11-19T03:40:33;42.89;39.21;53.43;;
48967;Laerm;46511;53.148;8.204;2023-11-19T03:43:04;42.42;37.88;54.74;;
48967;Laerm;46511;53.148;8.204;2023-11-19T03:45:31;42.14;38.05;51.57;;
48967;Laerm;46511;53.148;8.204;2023-11-19T03:47:57;45.64;39.34;61.20;;
48967;Laerm;46511;53.148;8.204;2023-11-19T03:50:29;43.11;39.34;56.60;;
48967;Laerm;46511;53.148;8.204;2023-11-19T03:53:00;42.59;36.20;56.06;;
48967;Laerm;46511;53.148;8.204;2023-11-19T03:55:31;42.79;39.08;53.56;;
48967;Laerm;46511;53.148;8.204;2023-11-19T03:57:59;42.90;40.03;49.02;;
48967;Laerm;46511;53.148;8.204;2023-11-19T04:00:25;42.66;39.70;52.48;;
48967;Laerm;46511;53.148;8.204;2023-11-19T04:02:51;42.59;39.21;50.63;;
48967;Laerm;46511;53.148;8.204;2023-11-19T04:05:19;44.08;40.43;56.69;;
48967;Laerm;46511;53.148;8.204;2023-11-19T04:07:50;43.06;39.70;52.64;;
48967;Laerm;46511;53.148;8.204;2023-11-19T04:10:21;42.57;38.05;58.72;;
48967;Laerm;46511;53.148;8.204;2023-11-19T04:12:48;43.11;38.52;55.71;;
48967;Laerm;46511;53.148;8.204;2023-11-19T04:15:15;42.51;38.52;51.84;;
48967;Laerm;46511;53.148;8.204;2023-11-19T04:17:41;42.71;38.52;47.79;;
48967;Laerm;46511;53.148;8.204;2023-11-19T04:20:08;45.15;38.67;63.01;;
48967;Laerm;46511;53.148;8.204;2023-11-19T04:22:43;51.24;38.95;67.33;;
48967;Laerm;46511;53.148;8.204;2023-11-19T04:25:10;49.48;39.58;64.30;;
48967;Laerm;46511;53.148;8.204;2023-11-19T04:27:37;54.19;38.52;68.13;;
48967;Laerm;46511;53.148;8.204;2023-11-19T04:30:03;44.03;38.52;63.83;;
48967;Laerm;46511;53.148;8.204;2023-11-19T04:32:31;43.01;38.37;57.72;;
48967;Laerm;46511;53.148;8.204;2023-11-19T04:34:57;42.76;38.67;53.89;;
48967;Laerm;46511;53.148;8.204;2023-11-19T04:37:24;48.99;39.92;64.03;;
48967;Laerm;46511;53.148;8.204;2023-11-19T04:39:55;49.80;39.81;65.44;;
48967;Laerm;46511;53.148;8.204;2023-11-19T04:42:27;56.57;40.89;67.04;;
48967;Laerm;46511;53.148;8.204;2023-11-19T04:44:53;44.19;39.46;67.01;;
48967;Laerm;46511;53.148;8.204;2023-11-19T04:47:19;44.71;37.70;68.79;;
48967;Laerm;46511;53.148;8.204;2023-11-19T04:49:45;43.07;38.37;53.21;;
48967;Laerm;46511;53.148;8.204;2023-11-19T04:52:17;43.14;39.21;57.65;;
48967;Laerm;46511;53.148;8.204;2023-11-19T04:54:43;42.99;38.81;60.11;;
48967;Laerm;46511;53.148;8.204;2023-11-19T04:57:10;48.68;38.81;63.85;;
48967;Laerm;46511;53.148;8.204;2023-11-19T04:59:37;42.62;38.21;58.60;;
48967;Laerm;46511;53.148;8.204;2023-11-19T05:02:04;42.42;39.08;52.64;;
48967;Laerm;46511;53.148;8.204;2023-11-19T05:04:31;43.26;39.99;54.23;;
48967;Laerm;46511;53.148;8.204;2023-11-19T05:06:57;42.32;38.37;47.24;;
48967;Laerm;46511;53.148;8.204;2023-11-19T05:09:24;43.43;38.81;60.02;;
48967;Laerm;46511;53.148;8.204;2023-11-19T05:11:50;44.26;38.21;64.45;;
48967;Laerm;46511;53.148;8.204;2023-11-19T05:14:21;43.08;38.37;56.11;;
48967;Laerm;46511;53.148;8.204;2023-11-19T05:16:48;43.17;38.81;52.01;;
48967;Laerm;46511;53.148;8.204;2023-11-19T05:19:14;43.08;39.08;62.57;;
48967;Laerm;46511;53.148;8.204;2023-11-19T05:21:44;42.80;38.67;50.17;;
48967;Laerm;46511;53.148;8.204;2023-11-19T05:24:11;46.04;41.30;61.05;;
48967;Laerm;46511;53.148;8.204;2023-11-19T05:26:45;43.91;40.53;60.36;;
48967;Laerm;46511;53.148;8.204;2023-11-19T05:29:16;43.58;39.58;58.76;;
48967;Laerm;46511;53.148;8.204;2023-11-19T05:31:48;44.36;39.46;61.87;;
48967;Laerm;46511;53.148;8.204;2023-11-19T05:34:14;43.69;39.70;63.27;;
48967;Laerm;46511;53.148;8.204;2023-11-19T05:36:46;42.75;39.46;46.62;;
48967;Laerm;46511;53.148;8.204;2023-11-19T05:39:17;45.53;39.58;61.76;;
48967;Laerm;46511;53.148;8.204;2023-11-19T05:41:47;43.55;41.06;50.98;;
48967;Laerm;46511;53.148;8.204;2023-11-19T05:44:15;42.89;37.12;48.08;;
48967;Laerm;46511;53.148;8.204;2023-11-19T05:46:42;50.05;40.13;64.97;;
48967;Laerm;46511;53.148;8.204;2023-11-19T05:49:09;45.84;40.23;65.54;;
48967;Laerm;46511;53.148;8.204;2023-11-19T05:51:39;44.80;39.70;65.40;;
48967;Laerm;46511;53.148;8.204;2023-11-19T05:54:07;50.03;38.67;65.24;;
48967;Laerm;46511;53.148;8.204;2023-11-19T05:56:39;43.37;38.05;62.33;;
48967;Laerm;46511;53.148;8.204;2023-11-19T05:59:05;43.20;39.21;66.88;;
48967;Laerm;46511;53.148;8.204;2023-11-19T06:01:41;43.81;39.46;60.21;;
48967;Laerm;46511;53.148;8.204;2023-11-19T06:04:08;44.23;37.87;62.92;;
48967;Laerm;46511;53.148;8.204;2023-11-19T06:06:34;47.58;40.43;63.32;;
48967;Laerm;46511;53.148;8.204;2023-11-19T06:09:06;47.66;40.98;60.70;;
48967;Laerm;46511;53.148;8.204;2023-11-19T06:11:33;52.27;40.43;69.12;;
48967;Laerm;46511;53.148;8.204;2023-11-19T06:14:00;47.66;40.53;66.83;;
48967;Laerm;46511;53.148;8.204;2023-11-19T06:16:26;44.19;39.70;60.31;;
48967;Laerm;46511;53.148;8.204;2023-11-19T06:18:53;51.30;40.53;69.74;;
48967;Laerm;46511;53.148;8.204;2023-11-19T06:21:25;44.41;40.23;58.82;;
48967;Laerm;46511;53.148;8.204;2023-11-19T06:23:51;54.49;40.80;70.50;;
48967;Laerm;46511;53.148;8.204;2023-11-19T06:26:19;47.13;39.58;64.69;;
48967;Laerm;46511;53.148;8.204;2023-11-19T06:28:50;45.38;40.33;69.48;;
48967;Laerm;46511;53.148;8.204;2023-11-19T06:31:17;51.51;39.08;67.52;;
48967;Laerm;46511;53.148;8.204;2023-11-19T06:33:43;43.49;40.71;57.45;;
48967;Laerm;46511;53.148;8.204;2023-11-19T06:36:10;48.02;40.03;78.09;;
48967;Laerm;46511;53.148;8.204;2023-11-19T06:38:36;48.59;40.53;75.21;;
48967;Laerm;46511;53.148;8.204;2023-11-19T06:41:07;50.39;41.53;63.41;;
48967;Laerm;46511;53.148;8.204;2023-11-19T06:43:36;54.24;41.38;88.11;;
48967;Laerm;46511;53.148;8.204;2023-11-19T06:46:15;50.95;41.06;68.72;;
48967;Laerm;46511;53.148;8.204;2023-11-19T06:48:42;50.52;42.35;82.23;;
48967;Laerm;46511;53.148;8.204;2023-11-19T06:51:12;54.81;41.82;73.50;;
48967;Laerm;46511;53.148;8.204;2023-11-19T06:53:46;47.03;41.82;63.33;;
48967;Laerm;46511;53.148;8.204;2023-11-19T06:56:23;44.95;41.61;65.25;;
48967;Laerm;46511;53.148;8.204;2023-11-19T06:58:58;44.81;41.53;61.48;;
48967;Laerm;46511;53.148;8.204;2023-11-19T07:01:39;52.79;42.22;71.00;;
48967;Laerm;46511;53.148;8.204;2023-11-19T07:04:24;47.92;39.70;61.01;;
48967;Laerm;46511;53.148;8.204;2023-11-19T07:06:53;44.26;41.38;52.92;;
48967;Laerm;46511;53.148;8.204;2023-11-19T07:09:20;43.89;40.62;51.90;;
48967;Laerm;46511;53.148;8.204;2023-11-19T07:11:47;51.69;41.89;68.59;;
48967;Laerm;46511;53.148;8.204;2023-11-19T07:14:18;45.10;41.75;54.67;;
48967;Laerm;46511;53.148;8.204;2023-11-19T07:16:58;44.30;41.06;48.91;;
48967;Laerm;46511;53.148;8.204;2023-11-19T07:19:36;50.48;41.30;77.54;;
48967;Laerm;46511;53.148;8.204;2023-11-19T07:22:11;48.56;41.82;64.13;;
48967;Laerm;46511;53.148;8.204;2023-11-19T07:24:44;51.00;41.75;63.31;;
48967;Laerm;46511;53.148;8.204;2023-11-19T07:27:37;55.82;42.53;80.82;;
48967;Laerm;46511;53.148;8.204;2023-11-19T07:30:07;46.31;41.89;66.33;;
48967;Laerm;46511;53.148;8.204;2023-11-19T07:32:34;45.33;42.35;61.04;;
48967;Laerm;46511;53.148;8.204;2023-11-19T07:35:05;51.82;41.22;69.72;;
48967;Laerm;46511;53.148;8.204;2023-11-19T07:37:32;54.48;41.06;69.89;;
48967;Laerm;46511;53.148;8.204;2023-11-19T07:40:20;49.27;43.29;63.36;;
48967;Laerm;46511;53.148;8.204;2023-11-19T07:42:49;53.52;42.65;67.66;;
48967;Laerm;46511;53.148;8.204;2023-11-19T07:45:23;48.97;42.47;70.75;;
48967;Laerm;46511;53.148;8.204;2023-11-19T07:47:52;52.22;43.04;65.46;;
48967;Laerm;46511;53.148;8.204;2023-11-19T07:50:21;45.58;42.53;62.15;;
48967;Laerm;46511;53.148;8.204;2023-11-19T07:53:01;47.36;42.53;61.20;;
48967;Laerm;46511;53.148;8.204;2023-11-19T07:55:30;57.88;42.22;71.08;;
48967;Laerm;46511;53.148;8.204;2023-11-19T07:57:59;48.01;42.59;64.67;;
48967;Laerm;46511;53.148;8.204;2023-11-19T08:00:51;47.06;41.30;62.11;;
48967;Laerm;46511;53.148;8.204;2023-11-19T08:03:29;50.85;42.93;65.03;;
48967;Laerm;46511;53.148;8.204;2023-11-19T08:05:56;44.96;42.35;58.16;;
48967;Laerm;46511;53.148;8.204;2023-11-19T08:08:33;49.40;42.71;64.31;;
48967;Laerm;46511;53.148;8.204;2023-11-19T08:11:00;53.65;42.53;67.22;;
48967;Laerm;46511;53.148;8.204;2023-11-19T08:13:30;44.78;42.22;58.07;;
48967;Laerm;46511;53.148;8.204;2023-11-19T08:16:00;49.19;42.35;72.53;;
48967;Laerm;46511;53.148;8.204;2023-11-19T08:18:32;61.46;42.88;72.85;;
48967;Laerm;46511;53.148;8.204;2023-11-19T08:20:58;56.97;43.63;69.17;;
48967;Laerm;46511;53.148;8.204;2023-11-19T08:23:31;52.68;45.99;62.64;;
48967;Laerm;46511;53.148;8.204;2023-11-19T08:26:04;45.89;42.98;59.52;;
48967;Laerm;46511;53.148;8.204;2023-11-19T08:28:37;51.69;41.38;66.10;;
48967;Laerm;46511;53.148;8.204;2023-11-19T08:31:04;46.91;42.41;73.78;;
48967;Laerm;46511;53.148;8.204;2023-11-19T08:33:35;53.61;43.19;72.44;;
48967;Laerm;46511;53.148;8.204;2023-11-19T08:36:07;53.14;43.77;65.30;;
48967;Laerm;46511;53.148;8.204;2023-11-19T08:38:33;57.03;43.04;90.40;;
48967;Laerm;46511;53.148;8.204;2023-11-19T08:41:00;54.75;43.63;81.73;;
48967;Laerm;46511;53.148;8.204;2023-11-19T08:43:27;54.73;43.86;73.79;;
48967;Laerm;46511;53.148;8.204;2023-11-19T08:45:58;54.49;43.49;68.32;;
48967;Laerm;46511;53.148;8.204;2023-11-19T08:48:30;54.54;43.94;71.81;;
48967;Laerm;46511;53.148;8.204;2023-11-19T08:51:01;51.80;42.09;63.77;;
48967;Laerm;46511;53.148;8.204;2023-11-19T08:53:32;56.76;43.89;70.24;;
48967;Laerm;46511;53.148;8.204;2023-11-19T08:56:04;53.51;43.58;65.85;;
48967;Laerm;46511;53.148;8.204;2023-11-19T08:58:36;54.90;43.44;67.48;;
48967;Laerm;46511;53.148;8.204;2023-11-19T09:01:07;52.13;43.14;70.20;;
48967;Laerm;46511;53.148;8.204;2023-11-19T09:03:40;52.21;42.76;71.16;;
48967;Laerm;46511;53.148;8.204;2023-11-19T09:06:12;49.77;42.82;64.00;;
48967;Laerm;46511;53.148;8.204;2023-11-19T09:08:43;52.03;43.29;65.80;;
48967;Laerm;46511;53.148;8.204;2023-11-19T09:11:16;51.33;42.53;65.79;;
48967;Laerm;46511;53.148;8.204;2023-11-19T09:13:47;50.61;43.14;67.15;;
48967;Laerm;46511;53.148;8.204;2023-11-19T09:16:19;54.19;44.76;67.27;;
48967;Laerm;46511;53.148;8.204;2023-11-19T09:18:50;48.65;44.23;62.67;;
48967;Laerm;46511;53.148;8.204;2023-11-19T09:21:17;54.66;44.31;73.81;;
48967;Laerm;46511;53.148;8.204;2023-11-19T09:23:43;53.05;44.51;63.94;;
48967;Laerm;46511;53.148;8.204;2023-11-19T09:26:16;55.72;43.04;69.37;;
48967;Laerm;46511;53.148;8.204;2023-11-19T09:28:47;54.98;43.68;69.43;;
48967;Laerm;46511;53.148;8.204;2023-11-19T09:31:18;50.48;43.77;63.06;;
48967;Laerm;46511;53.148;8.204;2023-11-19T09:33:45;52.64;43.49;65.70;;
48967;Laerm;46511;53.148;8.204;2023-11-19T09:36:17;51.62;43.14;65.25;;
48967;Laerm;46511;53.148;8.204;2023-11-19T09:38:48;54.40;43.39;69.91;;
48967;Laerm;46511;53.148;8.204;2023-11-19T09:41:19;46.29;43.04;60.28;;
48967;Laerm;46511;53.148;8.204;2023-11-19T09:43:51;56.97;43.29;87.51;;
48967;Laerm;46511;53.148;8.204;2023-11-19T09:46:22;57.22;45.54;82.27;;
48967;Laerm;46511;53.148;8.204;2023-11-19T09:48:57;57.00;44.23;87.09;;
48967;Laerm;46511;53.148;8.204;2023-11-19T09:51:25;56.74;44.80;71.53;;
48967;Laerm;46511;53.148;8.204;2023-11-19T09:53:58;46.21;43.58;54.74;;
48967;Laerm;46511;53.148;8.204;2023-11-19T09:56:40;51.54;43.77;69.11;;
48967;Laerm;46511;53.148;8.204;2023-11-19T09:59:07;57.31;44.31;70.33;;
48967;Laerm;46511;53.148;8.204;2023-11-19T10:01:51;54.83;44.90;73.26;;
48967;Laerm;46511;53.148;8.204;2023-11-19T10:04:37;59.11;45.17;75.92;;
48967;Laerm;46511;53.148;8.204;2023-11-19T10:07:05;53.15;44.76;69.43;;
48967;Laerm;46511;53.148;8.204;2023-11-19T10:09:31;56.27;45.11;70.02;;
48967;Laerm;46511;53.148;8.204;2023-11-19T10:12:07;51.84;43.77;68.31;;
48967;Laerm;46511;53.148;8.204;2023-11-19T10:14:34;51.57;43.46;65.43;;
48967;Laerm;46511;53.148;8.204;2023-11-19T10:17:10;52.46;44.03;65.64;;
48967;Laerm;46511;53.148;8.204;2023-11-19T10:19:36;55.35;43.81;67.08;;
48967;Laerm;46511;53.148;8.204;2023-11-19T10:22:04;52.47;44.19;67.64;;
48967;Laerm;46511;53.148;8.204;2023-11-19T10:24:32;55.94;44.35;68.22;;
48967;Laerm;46511;53.148;8.204;2023-11-19T10:27:02;51.80;43.44;66.41;;
48967;Laerm;46511;53.148;8.204;2023-11-19T10:29:37;57.62;43.58;68.45;;
48967;Laerm;46511;53.148;8.204;2023-11-19T10:32:09;47.20;43.68;66.84;;
48967;Laerm;46511;53.148;8.204;2023-11-19T10:34:36;51.85;43.99;73.28;;
48967;Laerm;46511;53.148;8.204;2023-11-19T10:37:09;51.35;44.76;66.25;;
48967;Laerm;46511;53.148;8.204;2023-11-19T10:39:57;53.11;44.19;64.54;;
48967;Laerm;46511;53.148;8.204;2023-11-19T10:42:29;53.09;43.89;68.83;;
48967;Laerm;46511;53.148;8.204;2023-11-19T10:45:00;52.72;44.15;63.84;;
48967;Laerm;46511;53.148;8.204;2023-11-19T10:47:34;59.69;44.08;70.75;;
48967;Laerm;46511;53.148;8.204;2023-11-19T10:50:06;53.61;44.03;72.86;;
48967;Laerm;46511;53.148;8.204;2023-11-19T10:52:38;53.55;43.68;64.96;;
48967;Laerm;46511;53.148;8.204;2023-11-19T10:55:11;56.46;44.15;67.79;;
48967;Laerm;46511;53.148;8.204;2023-11-19T10:57:46;52.98;43.72;65.71;;
48967;Laerm;46511;53.148;8.204;2023-11-19T11:00:16;50.77;43.14;69.71;;
48967;Laerm;46511;53.148;8.204;2023-11-19T11:02:55;52.44;43.86;66.30;;
48967;Laerm;46511;53.148;8.204;2023-11-19T11:05:25;56.22;43.72;66.72;;
48967;Laerm;46511;53.148;8.204;2023-11-19T11:07:55;53.54;44.15;67.43;;
48967;Laerm;46511;53.148;8.204;2023-11-19T11:10:28;55.10;44.03;70.07;;
48967;Laerm;46511;53.148;8.204;2023-11-19T11:12:59;52.37;43.58;65.02;;
48967;Laerm;46511;53.148;8.204;2023-11-19T11:15:31;59.04;43.81;70.76;;
48967;Laerm;46511;53.148;8.204;2023-11-19T11:18:02;51.13;43.49;65.22;;
48967;Laerm;46511;53.148;8.204;2023-11-19T11:20:30;55.71;44.35;67.17;;
48967;Laerm;46511;53.148;8.204;2023-11-19T11:26:21;55.17;43.77;71.53;;
48967;Laerm;46511;53.148;8.204;2023-11-19T11:29:09;58.47;43.90;72.74;;
48967;Laerm;46511;53.148;8.204;2023-11-19T11:31:45;51.31;43.90;63.56;;
48967;Laerm;46511;53.148;8.204;2023-11-19T11:39:46;53.45;44.54;66.77;;
48967;Laerm;46511;53.148;8.204;2023-11-19T11:45:04;55.57;44.31;70.24;;
48967;Laerm;46511;53.148;8.204;2023-11-19T11:50:13;55.27;44.54;69.72;;
48967;Laerm;46511;53.148;8.204;2023-11-19T11:53:17;55.85;44.83;79.39;;
48967;Laerm;46511;53.148;8.204;2023-11-19T11:58:20;54.75;44.43;67.68;;
48967;Laerm;46511;53.148;8.204;2023-11-19T12:00:52;54.69;44.15;70.76;;
48967;Laerm;46511;53.148;8.204;2023-11-19T12:03:22;58.35;44.47;71.27;;
48967;Laerm;46511;53.148;8.204;2023-11-19T12:05:53;50.83;43.58;64.64;;
48967;Laerm;46511;53.148;8.204;2023-11-19T12:08:27;55.35;43.72;67.84;;
48967;Laerm;46511;53.148;8.204;2023-11-19T12:10:58;53.50;43.99;65.16;;
48967;Laerm;46511;53.148;8.204;2023-11-19T12:13:55;53.86;43.72;79.04;;
48967;Laerm;46511;53.148;8.204;2023-11-19T12:16:33;57.88;43.89;82.17;;
48967;Laerm;46511;53.148;8.204;2023-11-19T12:19:09;58.17;44.47;85.64;;
48967;Laerm;46511;53.148;8.204;2023-11-19T12:21:40;58.53;45.01;78.50;;
48967;Laerm;46511;53.148;8.204;2023-11-19T12:24:12;58.24;45.23;69.09;;
48967;Laerm;46511;53.148;8.204;2023-11-19T12:26:43;54.98;44.19;65.76;;
48967;Laerm;46511;53.148;8.204;2023-11-19T12:29:10;53.57;44.62;65.36;;
48967;Laerm;46511;53.148;8.204;2023-11-19T12:31:37;57.85;44.31;83.66;;
48967;Laerm;46511;53.148;8.204;2023-11-19T12:34:08;59.76;44.58;74.28;;
48967;Laerm;46511;53.148;8.204;2023-11-19T12:36:42;57.47;45.83;75.99;;
48967;Laerm;46511;53.148;8.204;2023-11-19T12:39:14;58.22;45.62;70.31;;
48967;Laerm;46511;53.148;8.204;2023-11-19T12:41:49;56.81;44.15;70.75;;
48967;Laerm;46511;53.148;8.204;2023-11-19T12:44:17;56.21;45.51;67.94;;
48967;Laerm;46511;53.148;8.204;2023-11-19T12:47:05;54.98;44.11;75.71;;
48967;Laerm;46511;53.148;8.204;2023-11-19T12:49:37;54.73;44.23;72.66;;
48967;Laerm;46511;53.148;8.204;2023-11-19T12:52:12;49.98;43.72;61.93;;
48967;Laerm;46511;53.148;8.204;2023-11-19T12:54:44;51.00;44.08;62.98;;
48967;Laerm;46511;53.148;8.204;2023-11-19T12:57:15;54.87;44.27;69.37;;
48967;Laerm;46511;53.148;8.204;2023-11-19T12:59:56;52.82;44.12;66.11;;
48967;Laerm;46511;53.148;8.204;2023-11-19T13:02:51;54.84;44.65;66.94;;
48967;Laerm;46511;53.148;8.204;2023-11-19T13:05:30;55.35;44.31;65.66;;
48967;Laerm;46511;53.148;8.204;2023-11-19T13:08:05;52.06;44.73;62.19;;
48967;Laerm;46511;53.148;8.204;2023-11-19T13:13:20;56.20;44.27;69.06;;
48967;Laerm;46511;53.148;8.204;2023-11-19T13:15:51;56.43;44.80;68.56;;
48967;Laerm;46511;53.148;8.204;2023-11-19T13:18:22;55.43;44.69;66.17;;
48967;Laerm;46511;53.148;8.204;2023-11-19T13:20:54;52.91;44.54;64.63;;
48967;Laerm;46511;53.148;8.204;2023-11-19T13:23:28;54.66;44.39;69.85;;
48967;Laerm;46511;53.148;8.204;2023-11-19T13:25:59;53.46;44.23;76.94;;
48967;Laerm;46511;53.148;8.204;2023-11-19T13:28:30;51.55;44.80;64.52;;
48967;Laerm;46511;53.148;8.204;2023-11-19T13:31:02;55.88;44.35;68.65;;
48967;Laerm;46511;53.148;8.204;2023-11-19T13:33:34;54.55;43.81;67.12;;
48967;Laerm;46511;53.148;8.204;2023-11-19T13:36:05;53.71;44.23;61.69;;
48967;Laerm;46511;53.148;8.204;2023-11-19T13:38:38;52.49;44.47;66.71;;
48967;Laerm;46511;53.148;8.204;2023-11-19T13:41:12;57.37;46.78;65.20;;
48967;Laerm;46511;53.148;8.204;2023-11-19T13:43:47;55.00;44.31;68.34;;
48967;Laerm;46511;53.148;8.204;2023-11-19T13:46:19;51.15;44.51;67.10;;
48967;Laerm;46511;53.148;8.204;2023-11-19T13:48:50;53.00;43.72;63.43;;
48967;Laerm;46511;53.148;8.204;2023-11-19T13:51:21;55.58;44.23;65.60;;
48967;Laerm;46511;53.148;8.204;2023-11-19T13:53:52;49.72;44.11;64.54;;
48967;Laerm;46511;53.148;8.204;2023-11-19T13:56:24;55.11;44.35;70.97;;
48967;Laerm;46511;53.148;8.204;2023-11-19T13:58:55;55.31;45.07;66.79;;
48967;Laerm;46511;53.148;8.204;2023-11-19T14:01:22;53.15;44.51;67.45;;
48967;Laerm;46511;53.148;8.204;2023-11-19T14:03:48;53.65;44.07;65.19;;
48967;Laerm;46511;53.148;8.204;2023-11-19T14:06:20;55.20;44.35;65.71;;
48967;Laerm;46511;53.148;8.204;2023-11-19T14:08:52;53.48;44.27;65.40;;
48967;Laerm;46511;53.148;8.204;2023-11-19T14:11:18;52.23;43.81;72.42;;
48967;Laerm;46511;53.148;8.204;2023-11-19T14:13:44;51.57;43.34;65.55;;
48967;Laerm;46511;53.148;8.204;2023-11-19T14:16:17;58.12;43.94;70.60;;
48967;Laerm;46511;53.148;8.204;2023-11-19T14:18:49;51.95;44.15;65.07;;
48967;Laerm;46511;53.148;8.204;2023-11-19T14:21:21;52.84;44.76;68.98;;
48967;Laerm;46511;53.148;8.204;2023-11-19T14:23:47;57.69;47.61;67.46;;